sensor_id;sensor_type;location;lat;lon;timestamp;P1;durP1;ratioP1;P2;durP2;ratioP2
36787;SDS011;22738;45.560;9.434;2023-04-25T00:05:40;4.43;;;2.80;;
36787;SDS011;22738;45.560;9.434;2023-04-25T00:12:21;7.07;;;3.05;;
36787;SDS011;22738;45.560;9.434;2023-04-25T00:19:03;6.53;;;3.47;;
36787;SDS011;22738;45.560;9.434;2023-04-25T00:25:45;5.90;;;3.58;;
36787;SDS011;22738;45.560;9.434;2023-04-25T00:32:30;6.43;;;3.63;;
36787;SDS011;22738;45.560;9.434;2023-04-25T00:39:13;6.25;;;3.10;;
36787;SDS011;22738;45.560;9.434;2023-04-25T00:45:54;4.47;;;3.17;;
36787;SDS011;22738;45.560;9.434;2023-04-25T00:52:37;7.00;;;3.13;;
36787;SDS011;22738;45.560;9.434;2023-04-25T00:59:21;5.68;;;3.47;;
36787;SDS011;22738;45.560;9.434;2023-04-25T01:06:02;6.05;;;3.33;;
36787;SDS011;22738;45.560;9.434;2023-04-25T01:12:43;7.00;;;3.47;;
36787;SDS011;22738;45.560;9.434;2023-04-25T01:19:25;6.97;;;3.30;;
36787;SDS011;22738;45.560;9.434;2023-04-25T01:26:07;9.18;;;3.28;;
36787;SDS011;22738;45.560;9.434;2023-04-25T01:39:31;5.95;;;2.97;;
36787;SDS011;22738;45.560;9.434;2023-04-25T01:46:14;4.57;;;2.63;;
36787;SDS011;22738;45.560;9.434;2023-04-25T01:52:55;6.47;;;3.10;;
36787;SDS011;22738;45.560;9.434;2023-04-25T01:59:37;3.60;;;2.67;;
36787;SDS011;22738;45.560;9.434;2023-04-25T02:06:30;6.00;;;2.73;;
36787;SDS011;22738;45.560;9.434;2023-04-25T02:13:12;6.32;;;2.55;;
36787;SDS011;22738;45.560;9.434;2023-04-25T02:20:17;3.75;;;2.50;;
36787;SDS011;22738;45.560;9.434;2023-04-25T02:26:58;5.18;;;2.70;;
36787;SDS011;22738;45.560;9.434;2023-04-25T02:33:39;5.35;;;2.53;;
36787;SDS011;22738;45.560;9.434;2023-04-25T02:40:20;4.82;;;2.95;;
36787;SDS011;22738;45.560;9.434;2023-04-25T02:47:01;3.92;;;2.63;;
36787;SDS011;22738;45.560;9.434;2023-04-25T02:53:42;6.22;;;2.70;;
36787;SDS011;22738;45.560;9.434;2023-04-25T03:00:25;4.60;;;2.30;;
36787;SDS011;22738;45.560;9.434;2023-04-25T03:07:06;4.30;;;2.10;;
36787;SDS011;22738;45.560;9.434;2023-04-25T03:13:47;5.03;;;2.50;;
36787;SDS011;22738;45.560;9.434;2023-04-25T03:20:28;3.42;;;2.15;;
36787;SDS011;22738;45.560;9.434;2023-04-25T03:27:10;5.88;;;2.53;;
36787;SDS011;22738;45.560;9.434;2023-04-25T03:33:51;3.95;;;2.40;;
36787;SDS011;22738;45.560;9.434;2023-04-25T03:47:24;2.53;;;1.80;;
36787;SDS011;22738;45.560;9.434;2023-04-25T03:54:06;3.78;;;2.50;;
36787;SDS011;22738;45.560;9.434;2023-04-25T04:00:53;2.85;;;2.13;;
36787;SDS011;22738;45.560;9.434;2023-04-25T04:07:35;3.60;;;1.98;;
36787;SDS011;22738;45.560;9.434;2023-04-25T04:14:21;6.05;;;2.88;;
36787;SDS011;22738;45.560;9.434;2023-04-25T04:21:04;2.92;;;1.83;;
36787;SDS011;22738;45.560;9.434;2023-04-25T04:27:49;4.35;;;2.25;;
36787;SDS011;22738;45.560;9.434;2023-04-25T04:34:58;3.92;;;1.90;;
36787;SDS011;22738;45.560;9.434;2023-04-25T04:41:40;2.75;;;1.83;;
36787;SDS011;22738;45.560;9.434;2023-04-25T04:48:42;3.47;;;1.75;;
36787;SDS011;22738;45.560;9.434;2023-04-25T04:55:49;4.20;;;1.58;;
36787;SDS011;22738;45.560;9.434;2023-04-25T05:02:50;2.97;;;1.85;;
36787;SDS011;22738;45.560;9.434;2023-04-25T05:09:58;5.53;;;2.25;;
36787;SDS011;22738;45.560;9.434;2023-04-25T05:16:57;2.95;;;1.73;;
36787;SDS011;22738;45.560;9.434;2023-04-25T05:24:06;3.30;;;1.98;;
36787;SDS011;22738;45.560;9.434;2023-04-25T05:31:22;6.15;;;3.08;;
36787;SDS011;22738;45.560;9.434;2023-04-25T05:38:09;3.78;;;2.50;;
36787;SDS011;22738;45.560;9.434;2023-04-25T05:45:13;5.03;;;3.05;;
36787;SDS011;22738;45.560;9.434;2023-04-25T05:52:17;4.33;;;2.63;;
36787;SDS011;22738;45.560;9.434;2023-04-25T05:59:05;7.20;;;3.03;;
36787;SDS011;22738;45.560;9.434;2023-04-25T06:05:47;5.47;;;3.15;;
36787;SDS011;22738;45.560;9.434;2023-04-25T06:12:29;1.58;;;1.20;;
36787;SDS011;22738;45.560;9.434;2023-04-25T06:19:11;2.72;;;1.70;;
36787;SDS011;22738;45.560;9.434;2023-04-25T06:25:52;3.03;;;1.73;;
36787;SDS011;22738;45.560;9.434;2023-04-25T06:32:33;2.50;;;1.70;;
36787;SDS011;22738;45.560;9.434;2023-04-25T06:39:15;4.28;;;1.60;;
36787;SDS011;22738;45.560;9.434;2023-04-25T06:45:59;3.27;;;1.83;;
36787;SDS011;22738;45.560;9.434;2023-04-25T06:52:43;2.58;;;1.30;;
36787;SDS011;22738;45.560;9.434;2023-04-25T06:59:25;1.93;;;1.53;;
36787;SDS011;22738;45.560;9.434;2023-04-25T07:06:06;2.20;;;1.47;;
36787;SDS011;22738;45.560;9.434;2023-04-25T07:12:47;1.73;;;1.50;;
36787;SDS011;22738;45.560;9.434;2023-04-25T07:19:28;3.87;;;1.93;;
36787;SDS011;22738;45.560;9.434;2023-04-25T07:26:13;2.60;;;1.73;;
36787;SDS011;22738;45.560;9.434;2023-04-25T07:33:12;1.98;;;1.10;;
36787;SDS011;22738;45.560;9.434;2023-04-25T07:39:54;2.05;;;1.40;;
36787;SDS011;22738;45.560;9.434;2023-04-25T07:46:36;2.37;;;2.10;;
36787;SDS011;22738;45.560;9.434;2023-04-25T07:53:18;5.10;;;1.90;;
36787;SDS011;22738;45.560;9.434;2023-04-25T08:00:06;2.97;;;1.90;;
36787;SDS011;22738;45.560;9.434;2023-04-25T08:06:54;3.47;;;2.08;;
36787;SDS011;22738;45.560;9.434;2023-04-25T08:13:39;3.40;;;2.45;;
36787;SDS011;22738;45.560;9.434;2023-04-25T08:20:21;2.42;;;1.58;;
36787;SDS011;22738;45.560;9.434;2023-04-25T08:33:47;3.40;;;1.77;;
36787;SDS011;22738;45.560;9.434;2023-04-25T08:40:38;3.90;;;1.42;;
36787;SDS011;22738;45.560;9.434;2023-04-25T08:47:25;7.72;;;1.70;;
36787;SDS011;22738;45.560;9.434;2023-04-25T08:54:12;6.80;;;1.73;;
36787;SDS011;22738;45.560;9.434;2023-04-25T09:00:54;3.60;;;1.70;;
36787;SDS011;22738;45.560;9.434;2023-04-25T09:07:39;3.63;;;2.35;;
36787;SDS011;22738;45.560;9.434;2023-04-25T09:14:21;4.90;;;2.10;;
36787;SDS011;22738;45.560;9.434;2023-04-25T09:21:16;2.97;;;1.83;;
36787;SDS011;22738;45.560;9.434;2023-04-25T09:28:00;3.20;;;1.98;;
36787;SDS011;22738;45.560;9.434;2023-04-25T09:34:47;5.53;;;2.40;;
36787;SDS011;22738;45.560;9.434;2023-04-25T09:41:31;3.75;;;2.00;;
36787;SDS011;22738;45.560;9.434;2023-04-25T09:48:20;3.85;;;1.98;;
36787;SDS011;22738;45.560;9.434;2023-04-25T09:55:12;3.70;;;2.28;;
36787;SDS011;22738;45.560;9.434;2023-04-25T10:01:53;4.47;;;2.03;;
36787;SDS011;22738;45.560;9.434;2023-04-25T10:08:44;3.38;;;2.08;;
36787;SDS011;22738;45.560;9.434;2023-04-25T10:15:28;5.32;;;2.97;;
36787;SDS011;22738;45.560;9.434;2023-04-25T10:22:29;5.28;;;2.63;;
36787;SDS011;22738;45.560;9.434;2023-04-25T10:29:24;3.80;;;1.83;;
36787;SDS011;22738;45.560;9.434;2023-04-25T10:36:14;4.20;;;1.83;;
36787;SDS011;22738;45.560;9.434;2023-04-25T10:50:11;3.60;;;2.25;;
36787;SDS011;22738;45.560;9.434;2023-04-25T10:56:58;8.13;;;3.75;;
36787;SDS011;22738;45.560;9.434;2023-04-25T11:03:42;3.03;;;1.77;;
36787;SDS011;22738;45.560;9.434;2023-04-25T11:10:27;10.00;;;1.95;;
36787;SDS011;22738;45.560;9.434;2023-04-25T11:17:10;5.95;;;2.40;;
36787;SDS011;22738;45.560;9.434;2023-04-25T11:23:51;7.93;;;1.88;;
36787;SDS011;22738;45.560;9.434;2023-04-25T11:30:38;4.70;;;2.10;;
36787;SDS011;22738;45.560;9.434;2023-04-25T11:37:19;3.85;;;1.98;;
36787;SDS011;22738;45.560;9.434;2023-04-25T11:44:00;5.20;;;1.80;;
36787;SDS011;22738;45.560;9.434;2023-04-25T11:50:41;5.13;;;2.40;;
36787;SDS011;22738;45.560;9.434;2023-04-25T11:57:22;6.63;;;2.55;;
36787;SDS011;22738;45.560;9.434;2023-04-25T12:04:13;3.20;;;1.80;;
36787;SDS011;22738;45.560;9.434;2023-04-25T12:10:56;3.03;;;1.80;;
36787;SDS011;22738;45.560;9.434;2023-04-25T12:17:40;5.93;;;2.53;;
36787;SDS011;22738;45.560;9.434;2023-04-25T12:24:23;13.70;;;3.70;;
36787;SDS011;22738;45.560;9.434;2023-04-25T12:31:06;5.70;;;1.73;;
36787;SDS011;22738;45.560;9.434;2023-04-25T12:37:47;3.78;;;1.40;;
36787;SDS011;22738;45.560;9.434;2023-04-25T12:44:28;2.22;;;1.10;;
36787;SDS011;22738;45.560;9.434;2023-04-25T12:51:09;3.65;;;1.42;;
36787;SDS011;22738;45.560;9.434;2023-04-25T12:57:50;2.40;;;1.45;;
36787;SDS011;22738;45.560;9.434;2023-04-25T13:04:32;3.72;;;1.70;;
36787;SDS011;22738;45.560;9.434;2023-04-25T13:11:13;2.40;;;1.20;;
36787;SDS011;22738;45.560;9.434;2023-04-25T13:24:38;2.13;;;1.10;;
36787;SDS011;22738;45.560;9.434;2023-04-25T13:31:19;1.77;;;0.98;;
36787;SDS011;22738;45.560;9.434;2023-04-25T13:38:00;1.50;;;0.73;;
36787;SDS011;22738;45.560;9.434;2023-04-25T13:44:41;2.10;;;0.70;;
36787;SDS011;22738;45.560;9.434;2023-04-25T13:51:22;1.85;;;0.90;;
36787;SDS011;22738;45.560;9.434;2023-04-25T13:58:03;2.25;;;0.80;;
36787;SDS011;22738;45.560;9.434;2023-04-25T14:04:50;3.28;;;1.38;;
36787;SDS011;22738;45.560;9.434;2023-04-25T14:11:31;2.15;;;1.05;;
36787;SDS011;22738;45.560;9.434;2023-04-25T14:18:12;1.33;;;0.65;;
36787;SDS011;22738;45.560;9.434;2023-04-25T14:24:53;0.60;;;0.52;;
36787;SDS011;22738;45.560;9.434;2023-04-25T14:31:34;0.80;;;0.60;;
36787;SDS011;22738;45.560;9.434;2023-04-25T14:38:15;0.50;;;0.40;;
36787;SDS011;22738;45.560;9.434;2023-04-25T14:44:56;1.05;;;0.70;;
36787;SDS011;22738;45.560;9.434;2023-04-25T14:51:37;1.02;;;0.55;;
36787;SDS011;22738;45.560;9.434;2023-04-25T14:58:19;0.50;;;0.40;;
36787;SDS011;22738;45.560;9.434;2023-04-25T15:05:00;0.90;;;0.50;;
36787;SDS011;22738;45.560;9.434;2023-04-25T15:11:41;0.35;;;0.35;;
36787;SDS011;22738;45.560;9.434;2023-04-25T15:18:24;1.08;;;0.60;;
36787;SDS011;22738;45.560;9.434;2023-04-25T15:25:05;0.45;;;0.43;;
36787;SDS011;22738;45.560;9.434;2023-04-25T15:31:48;2.27;;;0.60;;
36787;SDS011;22738;45.560;9.434;2023-04-25T15:38:29;0.90;;;0.60;;
36787;SDS011;22738;45.560;9.434;2023-04-25T15:45:10;0.90;;;0.43;;
36787;SDS011;22738;45.560;9.434;2023-04-25T15:51:51;0.93;;;0.47;;
36787;SDS011;22738;45.560;9.434;2023-04-25T15:58:33;0.52;;;0.52;;
36787;SDS011;22738;45.560;9.434;2023-04-25T16:05:14;0.82;;;0.47;;
36787;SDS011;22738;45.560;9.434;2023-04-25T16:11:55;1.30;;;0.50;;
36787;SDS011;22738;45.560;9.434;2023-04-25T16:18:37;0.98;;;0.52;;
36787;SDS011;22738;45.560;9.434;2023-04-25T16:25:18;0.77;;;0.60;;
36787;SDS011;22738;45.560;9.434;2023-04-25T16:32:01;0.63;;;0.53;;
36787;SDS011;22738;45.560;9.434;2023-04-25T16:38:42;1.35;;;0.80;;
36787;SDS011;22738;45.560;9.434;2023-04-25T16:45:25;1.33;;;0.60;;
36787;SDS011;22738;45.560;9.434;2023-04-25T16:52:06;1.80;;;0.60;;
36787;SDS011;22738;45.560;9.434;2023-04-25T16:58:49;1.35;;;0.57;;
36787;SDS011;22738;45.560;9.434;2023-04-25T17:05:31;2.58;;;1.67;;
36787;SDS011;22738;45.560;9.434;2023-04-25T17:12:12;2.33;;;1.48;;
36787;SDS011;22738;45.560;9.434;2023-04-25T17:18:55;6.20;;;1.77;;
36787;SDS011;22738;45.560;9.434;2023-04-25T17:25:37;1.88;;;1.35;;
36787;SDS011;22738;45.560;9.434;2023-04-25T17:32:18;2.53;;;1.38;;
36787;SDS011;22738;45.560;9.434;2023-04-25T17:39:00;3.25;;;1.50;;
36787;SDS011;22738;45.560;9.434;2023-04-25T17:45:41;3.67;;;1.55;;
36787;SDS011;22738;45.560;9.434;2023-04-25T17:52:22;1.60;;;1.17;;
36787;SDS011;22738;45.560;9.434;2023-04-25T17:59:04;1.40;;;1.15;;
36787;SDS011;22738;45.560;9.434;2023-04-25T18:05:45;2.35;;;1.38;;
36787;SDS011;22738;45.560;9.434;2023-04-25T18:12:26;2.70;;;1.70;;
36787;SDS011;22738;45.560;9.434;2023-04-25T18:19:08;3.25;;;1.25;;
36787;SDS011;22738;45.560;9.434;2023-04-25T18:25:55;2.42;;;1.52;;
36787;SDS011;22738;45.560;9.434;2023-04-25T18:32:36;5.47;;;1.45;;
36787;SDS011;22738;45.560;9.434;2023-04-25T18:39:17;2.38;;;1.42;;
36787;SDS011;22738;45.560;9.434;2023-04-25T18:45:58;3.55;;;1.20;;
36787;SDS011;22738;45.560;9.434;2023-04-25T18:52:41;2.65;;;1.27;;
36787;SDS011;22738;45.560;9.434;2023-04-25T18:59:22;1.80;;;1.58;;
36787;SDS011;22738;45.560;9.434;2023-04-25T19:06:05;2.17;;;1.42;;
36787;SDS011;22738;45.560;9.434;2023-04-25T19:12:48;1.63;;;1.50;;
36787;SDS011;22738;45.560;9.434;2023-04-25T19:19:29;1.67;;;1.35;;
36787;SDS011;22738;45.560;9.434;2023-04-25T19:26:10;3.90;;;1.67;;
36787;SDS011;22738;45.560;9.434;2023-04-25T19:32:54;2.10;;;1.40;;
36787;SDS011;22738;45.560;9.434;2023-04-25T19:39:38;2.17;;;1.50;;
36787;SDS011;22738;45.560;9.434;2023-04-25T19:46:19;1.92;;;1.52;;
36787;SDS011;22738;45.560;9.434;2023-04-25T19:53:00;2.38;;;1.20;;
36787;SDS011;22738;45.560;9.434;2023-04-25T19:59:41;2.30;;;1.63;;
36787;SDS011;22738;45.560;9.434;2023-04-25T20:06:27;1.83;;;1.42;;
36787;SDS011;22738;45.560;9.434;2023-04-25T20:13:08;2.95;;;1.67;;
36787;SDS011;22738;45.560;9.434;2023-04-25T20:19:51;4.30;;;1.97;;
36787;SDS011;22738;45.560;9.434;2023-04-25T20:26:32;2.95;;;2.05;;
36787;SDS011;22738;45.560;9.434;2023-04-25T20:33:13;2.65;;;1.60;;
36787;SDS011;22738;45.560;9.434;2023-04-25T20:39:55;2.88;;;2.08;;
36787;SDS011;22738;45.560;9.434;2023-04-25T20:46:37;3.35;;;2.20;;
36787;SDS011;22738;45.560;9.434;2023-04-25T20:53:19;3.13;;;2.10;;
36787;SDS011;22738;45.560;9.434;2023-04-25T21:00:01;2.92;;;2.35;;
36787;SDS011;22738;45.560;9.434;2023-04-25T21:06:55;4.47;;;2.33;;
36787;SDS011;22738;45.560;9.434;2023-04-25T21:13:36;3.30;;;2.17;;
36787;SDS011;22738;45.560;9.434;2023-04-25T21:20:19;4.32;;;2.92;;
36787;SDS011;22738;45.560;9.434;2023-04-25T21:27:00;4.33;;;2.90;;
36787;SDS011;22738;45.560;9.434;2023-04-25T21:33:41;5.28;;;3.05;;
36787;SDS011;22738;45.560;9.434;2023-04-25T21:40:22;3.38;;;2.53;;
36787;SDS011;22738;45.560;9.434;2023-04-25T21:47:03;8.27;;;3.38;;
36787;SDS011;22738;45.560;9.434;2023-04-25T21:53:44;6.93;;;3.22;;
36787;SDS011;22738;45.560;9.434;2023-04-25T22:00:27;8.23;;;4.03;;
36787;SDS011;22738;45.560;9.434;2023-04-25T22:07:08;6.80;;;4.43;;
36787;SDS011;22738;45.560;9.434;2023-04-25T22:13:49;7.15;;;4.80;;
36787;SDS011;22738;45.560;9.434;2023-04-25T22:20:31;6.93;;;4.93;;
36787;SDS011;22738;45.560;9.434;2023-04-25T22:27:12;8.07;;;4.72;;
36787;SDS011;22738;45.560;9.434;2023-04-25T22:33:53;7.18;;;4.05;;
36787;SDS011;22738;45.560;9.434;2023-04-25T22:40:35;7.65;;;4.50;;
36787;SDS011;22738;45.560;9.434;2023-04-25T22:47:17;8.65;;;5.80;;
36787;SDS011;22738;45.560;9.434;2023-04-25T22:53:58;9.63;;;5.28;;
36787;SDS011;22738;45.560;9.434;2023-04-25T23:00:40;8.70;;;5.05;;
36787;SDS011;22738;45.560;9.434;2023-04-25T23:07:21;11.23;;;5.82;;
36787;SDS011;22738;45.560;9.434;2023-04-25T23:14:03;11.25;;;5.38;;
36787;SDS011;22738;45.560;9.434;2023-04-25T23:20:45;8.02;;;5.63;;
36787;SDS011;22738;45.560;9.434;2023-04-25T23:27:26;9.68;;;5.72;;
36787;SDS011;22738;45.560;9.434;2023-04-25T23:34:07;10.40;;;5.88;;
36787;SDS011;22738;45.560;9.434;2023-04-25T23:40:48;8.07;;;4.85;;
36787;SDS011;22738;45.560;9.434;2023-04-25T23:47:30;8.50;;;5.65;;
36787;SDS011;22738;45.560;9.434;2023-04-25T23:54:12;8.75;;;5.65;;
